Time;durP1;ratioP1;P1;durP2;ratioP2;P2;SDS_P1;SDS_P2;PMS_P1;PMS_P2;Temp;Humidity;BMP_temperature;BMP_pressure;BME280_temperature;BME280_humidity;BME280_pressure;Samples;Min_cycle;Max_cycle;Signal;HPM_P1;HPM_P2
2022/08/15 00:00:50;;;;;;;12.07;9.23;;;615.00;2432.00;;;;;;4953652;29;20409;-77
2022/08/15 00:03:35;;;;;;;9.48;8.48;;;615.00;2432.00;;;;;;4952827;29;20039;-77
2022/08/15 00:06:05;;;;;;;14.43;9.35;;;614.90;2432.00;;;;;;4937175;29;20046;-78
2022/08/15 00:08:33;;;;;;;10.70;9.32;;;614.90;2432.00;;;;;;4937465;29;20032;-78
2022/08/15 00:11:07;;;;;;;14.27;9.85;;;614.80;2432.00;;;;;;4937148;29;20034;-78
2022/08/15 00:13:34;;;;;;;10.70;9.23;;;614.80;2432.00;;;;;;4937359;29;20122;-80
2022/08/15 00:16:00;;;;;;;11.40;8.57;;;614.80;2432.00;;;;;;4953497;29;20087;-79
2022/08/15 00:18:27;;;;;;;10.45;9.13;;;614.80;2432.00;;;;;;4953299;29;20035;-78
2022/08/15 00:20:54;;;;;;;10.57;8.90;;;614.80;2432.00;;;;;;4951005;28;20038;-79
2022/08/15 00:23:26;;;;;;;10.82;8.98;;;614.80;2432.00;;;;;;4976682;28;20018;-79
2022/08/15 00:25:57;;;;;;;10.50;8.57;;;614.80;2432.00;;;;;;4976630;28;20073;-77
2022/08/15 00:28:24;;;;;;;12.45;8.48;;;614.90;2432.00;;;;;;4975775;28;20022;-79
2022/08/15 00:30:50;;;;;;;15.85;8.57;;;614.90;2432.00;;;;;;4994195;28;20030;-79
2022/08/15 00:33:16;;;;;;;10.80;8.63;;;614.90;2432.00;;;;;;4994268;28;20080;-78
2022/08/15 00:35:50;;;;;;;13.63;9.07;;;614.90;2432.00;;;;;;4976501;28;20380;-80
2022/08/15 00:38:20;;;;;;;10.02;8.02;;;614.80;2432.00;;;;;;4976288;28;20023;-79
2022/08/15 00:43:43;;;;;;;10.32;8.20;;;614.90;2432.00;;;;;;4994244;28;20073;-77
2022/08/15 00:46:12;;;;;;;11.13;8.15;;;614.80;2432.00;;;;;;4993834;28;20026;-77
2022/08/15 00:48:41;;;;;;;9.30;8.32;;;614.80;2432.00;;;;;;4976255;28;20404;-78
2022/08/15 00:51:28;;;;;;;10.40;8.88;;;614.80;2432.00;;;;;;4993384;28;20076;-78
2022/08/15 00:54:08;;;;;;;11.45;8.25;;;614.80;2432.00;;;;;;4993721;28;20089;-78
2022/08/15 00:56:47;;;;;;;10.10;8.25;;;614.80;2432.00;;;;;;4993510;28;20022;-77
2022/08/15 00:59:15;;;;;;;13.93;8.23;;;614.90;2432.00;;;;;;4993484;28;20034;-78
2022/08/15 01:01:43;;;;;;;9.65;8.20;;;614.90;2432.00;;;;;;4993551;28;20038;-79
2022/08/15 01:04:12;;;;;;;15.65;8.52;;;614.90;2432.00;;;;;;4993546;28;20026;-80
2022/08/15 01:06:38;;;;;;;10.10;8.10;;;614.80;2432.00;;;;;;4975971;28;20109;-79
2022/08/15 01:09:07;;;;;;;12.43;8.70;;;614.80;2432.00;;;;;;4976047;28;20117;-81
2022/08/15 01:11:45;;;;;;;13.80;8.70;;;614.80;2432.00;;;;;;4976053;28;20062;-80
2022/08/15 01:14:11;;;;;;;8.55;7.57;;;614.80;2432.00;;;;;;4993652;28;20117;-78
2022/08/15 01:16:41;;;;;;;9.95;8.95;;;614.80;2432.00;;;;;;4976159;28;20092;-81
2022/08/15 01:19:22;;;;;;;9.15;8.05;;;614.80;2432.00;;;;;;4975855;28;20034;-78
2022/08/15 01:22:04;;;;;;;10.00;8.07;;;614.70;2432.00;;;;;;4976086;28;20031;-79
2022/08/15 01:25:19;;;;;;;11.02;7.82;;;614.70;2432.00;;;;;;4976000;28;20053;-78
2022/08/15 01:28:11;;;;;;;9.95;7.97;;;614.80;2432.00;;;;;;4917562;29;20039;-79
2022/08/15 01:30:56;;;;;;;11.27;8.00;;;614.70;2432.00;;;;;;4861351;29;20132;-79
2022/08/15 01:33:24;;;;;;;10.98;8.95;;;614.60;2432.00;;;;;;4861304;29;20116;-77
2022/08/15 01:35:52;;;;;;;13.18;9.85;;;614.60;2432.00;;;;;;4876704;29;20538;-79
2022/08/15 01:38:30;;;;;;;11.75;9.43;;;614.70;2432.00;;;;;;4861270;29;20033;-77
2022/08/15 01:41:25;;;;;;;12.40;9.18;;;614.60;2432.00;;;;;;4878862;29;20037;-78
2022/08/15 01:44:22;;;;;;;11.63;9.98;;;614.60;2432.00;;;;;;4806491;29;20050;-78
2022/08/15 01:47:17;;;;;;;14.70;9.45;;;614.50;2432.00;;;;;;4782096;30;20031;-80
2022/08/15 01:49:49;;;;;;;10.68;9.38;;;614.50;2432.00;;;;;;4773746;30;20035;-81
2022/08/15 01:52:17;;;;;;;11.18;9.07;;;614.40;2432.00;;;;;;4787064;29;20529;-80
2022/08/15 01:54:44;;;;;;;11.05;9.82;;;614.40;2432.00;;;;;;4770908;30;20070;-80
2022/08/15 01:57:11;;;;;;;11.65;8.75;;;614.50;2432.00;;;;;;4755627;30;20501;-80
2022/08/15 01:59:37;;;;;;;12.57;9.02;;;614.50;2432.00;;;;;;4755770;30;20039;-80
2022/08/15 02:02:06;;;;;;;11.27;9.07;;;614.50;2432.00;;;;;;4768569;30;20046;-79
2022/08/15 02:04:41;;;;;;;12.77;9.25;;;614.40;2432.00;;;;;;4788435;29;20040;-78
2022/08/15 02:07:12;;;;;;;13.07;9.15;;;614.40;2432.00;;;;;;4788274;29;20043;-79
2022/08/15 02:09:41;;;;;;;12.32;9.88;;;589.70;2432.00;;;;;;4792749;29;20057;-80
2022/08/15 02:12:08;;;;;;;13.48;10.05;;;589.70;2432.00;;;;;;4806316;29;20066;-81
2022/08/15 02:14:35;;;;;;;12.07;9.80;;;589.70;2432.00;;;;;;4806450;29;20030;-80
2022/08/15 02:17:02;;;;;;;12.48;9.82;;;589.70;2432.00;;;;;;4807075;29;20042;-81
2022/08/15 02:19:28;;;;;;;14.48;10.40;;;589.60;2432.00;;;;;;4826414;29;20038;-80
2022/08/15 02:21:54;;;;;;;14.35;11.05;;;589.60;2432.00;;;;;;4920641;29;20036;-80
2022/08/15 02:24:23;;;;;;;12.57;9.80;;;589.70;2432.00;;;;;;4951222;28;20448;-80
2022/08/15 02:26:51;;;;;;;15.32;10.13;;;589.60;2432.00;;;;;;4978450;28;20066;-80
2022/08/15 02:29:17;;;;;;;13.05;9.70;;;589.40;2432.00;;;;;;4996052;28;20057;-81
2022/08/15 02:31:43;;;;;;;14.40;11.60;;;589.50;2432.00;;;;;;4994552;28;20066;-81
2022/08/15 02:34:10;;;;;;;14.77;10.27;;;589.50;2432.00;;;;;;4995838;28;20030;-80
2022/08/15 02:36:38;;;;;;;14.32;11.05;;;589.40;2432.00;;;;;;4978568;28;20027;-79
2022/08/15 02:39:07;;;;;;;15.77;11.93;;;589.30;2432.00;;;;;;4995706;28;20073;-79
2022/08/15 02:41:51;;;;;;;14.23;10.90;;;589.00;2432.00;;;;;;4978130;28;20491;-79
2022/08/15 02:44:20;;;;;;;13.60;11.18;;;564.10;2432.00;;;;;;4977973;28;20101;-79
2022/08/15 02:46:46;;;;;;;15.30;10.85;;;;;;;;;;4978014;28;20364;-79
2022/08/15 02:49:12;;;;;;;15.18;10.63;;;563.60;2432.00;;;;;;4978124;28;20038;-79
2022/08/15 02:51:42;;;;;;;16.88;11.73;;;563.60;2432.00;;;;;;4977407;28;20596;-79
2022/08/15 02:54:09;;;;;;;12.88;10.35;;;563.60;2432.00;;;;;;4983377;28;20023;-79
2022/08/15 02:56:36;;;;;;;16.50;12.13;;;563.70;2432.00;;;;;;4982571;28;20038;-79
2022/08/15 02:59:07;;;;;;;15.20;11.82;;;563.60;2432.00;;;;;;4978025;28;20606;-78
2022/08/15 03:01:37;;;;;;;14.32;10.95;;;563.60;2432.00;;;;;;4977975;28;20018;-80
2022/08/15 03:04:05;;;;;;;16.17;11.98;;;563.70;2432.00;;;;;;4988807;28;20396;-80
2022/08/15 03:06:31;;;;;;;16.02;11.27;;;563.90;2432.00;;;;;;5007968;28;20022;-81
2022/08/15 03:09:00;;;;;;;13.18;11.07;;;563.90;2432.00;;;;;;4998452;28;20036;-81
2022/08/15 03:11:27;;;;;;;12.48;10.98;;;563.90;2432.00;;;;;;5002576;28;20027;-81
2022/08/15 03:13:53;;;;;;;13.77;10.85;;;563.90;2432.00;;;;;;4986815;28;20121;-81
2022/08/15 03:16:19;;;;;;;12.18;10.15;;;564.00;2432.00;;;;;;4986652;28;20459;-81
2022/08/15 03:18:45;;;;;;;13.10;10.07;;;564.00;2432.00;;;;;;4981099;28;20026;-80
2022/08/15 03:21:19;;;;;;;11.73;10.45;;;564.10;2432.00;;;;;;5011337;28;20104;-80
2022/08/15 03:23:50;;;;;;;12.32;10.32;;;564.10;2432.00;;;;;;4996997;28;20059;-80
2022/08/15 03:26:19;;;;;;;15.27;11.40;;;564.10;2432.00;;;;;;4988397;28;20021;-80
2022/08/15 03:28:45;;;;;;;12.82;10.65;;;588.80;2432.00;;;;;;4982635;28;20037;-80
2022/08/15 03:31:11;;;;;;;17.52;10.75;;;588.80;2432.00;;;;;;4977438;28;20022;-80
2022/08/15 03:33:39;;;;;;;17.05;10.63;;;588.80;2432.00;;;;;;4977551;28;20495;-80
2022/08/15 03:36:06;;;;;;;11.05;9.25;;;588.90;2432.00;;;;;;4980011;28;20022;-80
2022/08/15 03:38:32;;;;;;;12.50;10.10;;;588.90;2432.00;;;;;;4973154;28;20400;-80
2022/08/15 03:40:59;;;;;;;21.73;11.48;;;588.90;2432.00;;;;;;4968178;28;20031;-79
2022/08/15 03:43:28;;;;;;;14.68;10.77;;;588.90;2432.00;;;;;;4989207;28;20038;-79
2022/08/15 03:45:58;;;;;;;17.73;11.45;;;588.90;2432.00;;;;;;4966542;28;20531;-79
2022/08/15 03:48:29;;;;;;;14.63;10.13;;;588.90;2432.00;;;;;;4982047;28;20064;-80
2022/08/15 03:50:56;;;;;;;14.70;11.40;;;588.90;2432.00;;;;;;4988381;28;20022;-80
2022/08/15 03:53:23;;;;;;;17.00;11.88;;;589.00;2432.00;;;;;;4982374;28;20039;-79
2022/08/15 03:55:49;;;;;;;13.10;9.90;;;588.90;2432.00;;;;;;4983001;28;20018;-79
2022/08/15 03:58:15;;;;;;;13.35;10.02;;;589.00;2432.00;;;;;;4983868;28;20084;-79
2022/08/15 04:00:47;;;;;;;11.73;9.05;;;589.00;2432.00;;;;;;4985834;28;20093;-78
2022/08/15 04:03:19;;;;;;;13.82;9.90;;;588.90;2432.00;;;;;;4985221;28;20054;-78
2022/08/15 04:05:49;;;;;;;13.05;10.35;;;588.90;2432.00;;;;;;4983126;28;20054;-79
2022/08/15 04:08:17;;;;;;;16.73;10.82;;;588.90;2432.00;;;;;;4984017;28;20048;-79
2022/08/15 04:10:45;;;;;;;14.02;10.23;;;588.90;2432.00;;;;;;4989584;28;20069;-82
2022/08/15 04:13:11;;;;;;;12.02;10.68;;;588.90;2432.00;;;;;;5000321;28;20026;-80
2022/08/15 04:15:38;;;;;;;12.88;10.13;;;588.90;2432.00;;;;;;4974974;28;20354;-78
2022/08/15 04:18:07;;;;;;;12.63;10.02;;;564.10;2432.00;;;;;;4976890;28;20030;-79
2022/08/15 04:20:33;;;;;;;14.00;9.35;;;588.80;2432.00;;;;;;4999878;28;20038;-79
2022/08/15 04:22:59;;;;;;;12.65;10.27;;;588.80;2432.00;;;;;;5002701;28;20019;-79
2022/08/15 04:25:37;;;;;;;14.25;10.60;;;588.90;2432.00;;;;;;5003760;28;20434;-79
2022/08/15 04:28:04;;;;;;;12.55;9.98;;;588.90;2432.00;;;;;;5004068;28;20112;-76
2022/08/15 04:30:35;;;;;;;14.48;11.20;;;588.90;2432.00;;;;;;5003626;28;20029;-76
2022/08/15 04:33:16;;;;;;;18.27;11.07;;;588.80;2432.00;;;;;;4999664;28;20062;-77
2022/08/15 04:35:52;;;;;;;14.50;10.57;;;588.80;2432.00;;;;;;4999735;28;20399;-79
2022/08/15 04:38:18;;;;;;;13.32;10.93;;;588.80;2432.00;;;;;;5004827;28;20022;-82
2022/08/15 04:40:45;;;;;;;13.50;10.77;;;588.80;2432.00;;;;;;5002514;28;20034;-83
2022/08/15 04:43:12;;;;;;;15.13;10.63;;;564.10;2432.00;;;;;;4985496;28;20059;-79
2022/08/15 04:45:40;;;;;;;13.57;11.13;;;564.10;2432.00;;;;;;4979014;28;20027;-79
2022/08/15 04:48:07;;;;;;;12.63;10.55;;;564.10;2432.00;;;;;;4987027;28;20026;-76
2022/08/15 04:50:36;;;;;;;17.20;10.77;;;588.80;2432.00;;;;;;4982347;28;20018;-75
2022/08/15 04:53:04;;;;;;;12.95;10.57;;;588.80;2432.00;;;;;;4986864;28;20491;-77
2022/08/15 04:55:30;;;;;;;13.05;10.02;;;588.80;2432.00;;;;;;4965331;28;20038;-76
2022/08/15 04:57:58;;;;;;;13.40;11.23;;;588.80;2432.00;;;;;;4981959;28;20113;-79
2022/08/15 05:00:27;;;;;;;12.65;10.45;;;588.80;2432.00;;;;;;4981248;28;20097;-79
2022/08/15 05:03:12;;;;;;;11.43;9.52;;;588.90;2432.00;;;;;;4983481;28;20127;-78
2022/08/15 05:05:41;;;;;;;11.98;10.57;;;588.90;2432.00;;;;;;4982655;28;20436;-79
2022/08/15 05:08:09;;;;;;;15.40;10.10;;;588.90;2432.00;;;;;;4982677;28;20046;-78
2022/08/15 05:10:35;;;;;;;12.60;9.75;;;589.00;2432.00;;;;;;4964730;28;20105;-77
2022/08/15 05:13:19;;;;;;;13.10;10.13;;;588.90;2432.00;;;;;;4966266;28;20134;-77
2022/08/15 05:15:46;;;;;;;16.17;10.00;;;589.00;2432.00;;;;;;4968121;28;20034;-77
2022/08/15 05:18:12;;;;;;;14.13;10.43;;;589.10;2432.00;;;;;;4987055;28;20034;-77
2022/08/15 05:20:41;;;;;;;16.98;10.45;;;589.20;2432.00;;;;;;4990981;28;20101;-78
2022/08/15 05:23:11;;;;;;;15.75;11.35;;;589.20;2432.00;;;;;;4991494;28;20038;-77
2022/08/15 05:25:41;;;;;;;13.18;10.70;;;589.30;2432.00;;;;;;4985847;28;20014;-77
2022/08/15 05:28:09;;;;;;;16.58;10.75;;;589.30;2432.00;;;;;;4989142;28;20037;-78
2022/08/15 05:30:35;;;;;;;13.93;10.88;;;589.50;2432.00;;;;;;4966271;28;20029;-85
2022/08/15 05:33:12;;;;;;;14.70;9.95;;;589.60;2432.00;;;;;;4983079;28;20065;-76
2022/08/15 05:35:44;;;;;;;13.13;10.20;;;589.60;2432.00;;;;;;4960655;28;20043;-82
2022/08/15 05:38:16;;;;;;;15.05;10.63;;;589.70;2432.00;;;;;;4984771;28;20476;-82
2022/08/15 05:41:01;;;;;;;16.80;11.20;;;589.70;2432.00;;;;;;4985322;28;20034;-81
2022/08/15 05:44:02;;;;;;;11.82;9.73;;;614.40;2432.00;;;;;;4988621;28;20038;-79
2022/08/15 05:46:35;;;;;;;11.50;9.35;;;;;;;;;;4992468;28;20018;-82
2022/08/15 05:49:23;;;;;;;20.80;11.27;;;614.50;2432.00;;;;;;4999258;28;20041;-81
2022/08/15 05:51:59;;;;;;;13.40;9.98;;;614.70;2432.00;;;;;;5008692;28;20041;-83
2022/08/15 05:54:33;;;;;;;13.27;8.88;;;614.80;2432.00;;;;;;4969328;28;20037;-82
2022/08/15 05:57:17;;;;;;;12.05;10.23;;;614.80;2432.00;;;;;;4980023;28;20121;-82
2022/08/15 05:59:48;;;;;;;14.57;10.15;;;614.80;2432.00;;;;;;4979677;28;20038;-80
2022/08/15 06:02:32;;;;;;;10.57;8.57;;;614.90;2432.00;;;;;;4997211;28;20034;-81
2022/08/15 06:05:13;;;;;;;10.63;9.05;;;615.00;2432.00;;;;;;4996915;28;20014;-81
2022/08/15 06:07:46;;;;;;;14.50;9.15;;;615.20;2432.00;;;;;;4996971;28;20488;-80
2022/08/15 06:10:29;;;;;;;11.00;9.25;;;615.30;2432.00;;;;;;4995855;28;20064;-81
2022/08/15 06:13:31;;;;;;;10.48;8.02;;;640.00;2432.00;;;;;;4995545;28;20050;-80
2022/08/15 06:16:06;;;;;;;13.13;9.98;;;640.00;2432.00;;;;;;4998284;28;20038;-80
2022/08/15 06:18:36;;;;;;;15.15;9.68;;;640.20;2432.00;;;;;;4987352;28;20022;-80
2022/08/15 06:21:37;;;;;;;10.88;8.25;;;640.30;2432.00;;;;;;4992592;28;20091;-81
2022/08/15 06:24:06;;;;;;;12.32;9.15;;;640.40;2432.00;;;;;;4979176;28;20030;-81
2022/08/15 06:26:57;;;;;;;13.73;8.57;;;640.60;2432.00;;;;;;4977622;28;20026;-81
2022/08/15 06:29:47;;;;;;;12.70;9.20;;;640.70;2432.00;;;;;;4981539;28;20388;-81
2022/08/15 06:32:32;;;;;;;10.45;9.15;;;640.60;2432.00;;;;;;4992728;28;20038;-81
2022/08/15 06:35:04;;;;;;;11.20;8.55;;;640.70;2432.00;;;;;;5010237;28;20050;-80
2022/08/15 06:37:42;;;;;;;11.25;8.55;;;640.90;2432.00;;;;;;4983921;28;20026;-81
2022/08/15 06:40:33;;;;;;;9.68;8.32;;;665.60;2432.00;;;;;;4978377;28;20031;-81
2022/08/15 06:43:00;;;;;;;14.20;8.68;;;665.60;2432.00;;;;;;4973335;28;20058;-81
2022/08/15 06:45:35;;;;;;;11.77;8.73;;;665.70;2432.00;;;;;;4994951;28;20018;-82
2022/08/15 06:48:10;;;;;;;12.07;8.43;;;665.80;2432.00;;;;;;5004254;28;20073;-79
2022/08/15 06:50:48;;;;;;;11.00;8.25;;;666.00;2432.00;;;;;;5004971;28;20096;-79
2022/08/15 06:53:27;;;;;;;10.82;8.75;;;666.10;2432.00;;;;;;5004850;28;20036;-81
2022/08/15 06:56:11;;;;;;;10.02;7.97;;;666.20;2432.00;;;;;;4984818;28;20018;-79
2022/08/15 06:59:04;;;;;;;10.35;8.80;;;666.40;2432.00;;;;;;4987580;28;20550;-80
2022/08/15 07:02:09;;;;;;;9.55;8.27;;;666.50;2432.00;;;;;;5002426;28;20069;-78
2022/08/15 07:05:13;;;;;;;12.52;8.95;;;666.50;2432.00;;;;;;4987451;28;20023;-79
2022/08/15 07:07:42;;;;;;;12.93;8.35;;;691.20;2432.00;;;;;;4979426;28;20027;-84
2022/08/15 07:10:44;;;;;;;9.80;7.32;;;691.30;2432.00;;;;;;4978041;28;20026;-77
2022/08/15 07:13:16;;;;;;;14.55;9.43;;;691.40;2432.00;;;;;;4935839;29;20043;-80
2022/08/15 07:15:59;;;;;;;20.83;12.35;;;691.60;2432.00;;;;;;4935415;29;20131;-77
2022/08/15 07:18:36;;;;;;;15.88;11.02;;;691.70;2432.00;;;;;;4935583;29;20035;-82
2022/08/15 07:21:22;;;;;;;28.88;17.80;;;691.80;2406.40;;;;;;4918394;29;20039;-81
2022/08/15 07:24:06;;;;;;;25.42;14.20;;;691.80;2227.20;;;;;;4935323;29;20478;-83
2022/08/15 07:27:01;;;;;;;19.17;11.10;;;692.00;2201.60;;;;;;4935296;29;20143;-83
2022/08/15 07:29:48;;;;;;;22.42;13.38;;;692.10;2176.00;;;;;;4922295;29;20063;-82
2022/08/15 07:32:35;;;;;;;19.17;11.52;;;716.80;2201.60;;;;;;4919234;29;20031;-81
2022/08/15 07:35:04;;;;;;;12.25;9.02;;;717.00;2124.80;;;;;;4925099;29;20044;-83
2022/08/15 07:37:37;;;;;;;14.32;9.98;;;717.10;2150.40;;;;;;4923861;29;20024;-83
2022/08/15 07:40:34;;;;;;;10.40;8.00;;;717.20;2048.00;;;;;;4919350;29;20520;-84
2022/08/15 07:43:03;;;;;;;13.55;7.68;;;717.40;2022.40;;;;;;4932351;29;20047;-82
2022/08/15 07:45:39;;;;;;;13.15;8.55;;;717.50;1971.20;;;;;;4934972;29;20023;-82
2022/08/15 07:48:23;;;;;;;11.18;7.82;;;717.50;1945.60;;;;;;4968040;28;20125;-81
2022/08/15 07:51:07;;;;;;;8.95;7.80;;;717.60;1945.60;;;;;;4977789;28;20542;-84
2022/08/15 07:53:33;;;;;;;12.05;7.28;;;717.60;1920.00;;;;;;4995027;28;20030;-83
2022/08/15 07:56:04;;;;;;;10.38;7.65;;;742.40;1945.60;;;;;;4973346;28;20111;-83
2022/08/15 07:58:32;;;;;;;13.75;7.97;;;742.40;1920.00;;;;;;4984491;28;20031;-82
2022/08/15 08:01:23;;;;;;;8.40;7.50;;;742.50;1894.40;;;;;;4970771;28;20038;-82
2022/08/15 08:04:22;;;;;;;10.10;7.07;;;742.50;1894.40;;;;;;4997982;28;20057;-86
2022/08/15 08:07:19;;;;;;;11.10;7.43;;;742.50;1868.80;;;;;;4964804;28;20129;-86
2022/08/15 08:10:01;;;;;;;19.45;8.05;;;742.60;1868.80;;;;;;4983237;28;20038;-87
2022/08/15 08:12:34;;;;;;;14.02;8.18;;;742.80;1792.00;;;;;;4987795;28;20053;-82
2022/08/15 08:15:26;;;;;;;9.32;7.57;;;742.80;1792.00;;;;;;4977024;28;20476;-88
2022/08/15 08:18:21;;;;;;;9.25;7.68;;;742.90;1792.00;;;;;;4961047;28;20504;-84
2022/08/15 08:20:58;;;;;;;10.40;7.82;;;742.90;1766.40;;;;;;4968658;28;20171;-80
2022/08/15 08:23:38;;;;;;;9.55;7.20;;;743.00;1715.20;;;;;;4960229;28;20023;-82
2022/08/15 08:26:13;;;;;;;15.48;7.78;;;743.10;1715.20;;;;;;4964450;28;20493;-80
2022/08/15 08:28:43;;;;;;;8.80;7.88;;;743.10;1740.80;;;;;;4971294;28;20043;-82
2022/08/15 08:31:45;;;;;;;9.30;6.75;;;743.00;1689.60;;;;;;4953618;28;20039;-84
2022/08/15 08:34:19;;;;;;;8.23;7.03;;;743.30;1715.20;;;;;;4935546;28;20055;-84
2022/08/15 08:36:59;;;;;;;11.32;7.65;;;743.10;1715.20;;;;;;4932606;29;20019;-79
2022/08/15 08:41:24;;;;;;;9.38;7.10;;;743.30;1740.80;;;;;;4928687;29;20042;-80
2022/08/15 08:43:05;;;;;;;9.68;7.90;;;743.30;1715.20;;;;;;4858600;29;20058;-82
2022/08/15 08:45:52;;;;;;;7.78;6.97;;;743.30;1715.20;;;;;;4858730;29;20038;-78
2022/08/15 08:48:32;;;;;;;8.32;7.32;;;768.00;1689.60;;;;;;4843473;29;20413;-82
2022/08/15 08:51:35;;;;;;;10.57;7.22;;;768.10;1689.60;;;;;;4854238;29;20049;-81
2022/08/15 08:54:18;;;;;;;7.70;6.65;;;768.10;1689.60;;;;;;4854963;29;20042;-80
2022/08/15 08:56:50;;;;;;;8.27;6.85;;;768.40;1664.00;;;;;;4863345;29;20049;-80
2022/08/15 08:59:23;;;;;;;11.82;6.70;;;768.50;1664.00;;;;;;4861860;29;20093;-82
2022/08/15 09:02:02;;;;;;;12.00;7.53;;;768.60;1612.80;;;;;;4877271;29;20541;-81
2022/08/15 09:04:38;;;;;;;8.80;7.18;;;768.50;1612.80;;;;;;4861779;29;20037;-80
2022/08/15 09:07:07;;;;;;;9.02;7.18;;;768.60;1612.80;;;;;;4861573;29;20033;-80
2022/08/15 09:09:39;;;;;;;8.70;6.63;;;768.60;1638.40;;;;;;4879056;29;20041;-81
2022/08/15 09:15:05;;;;;;;9.77;7.78;;;768.80;1587.20;;;;;;4914999;29;20035;-81
2022/08/15 09:17:36;;;;;;;15.07;7.37;;;768.70;1587.20;;;;;;4914846;29;20089;-82
2022/08/15 09:20:10;;;;;;;10.35;7.88;;;768.90;1587.20;;;;;;4976192;28;20027;-80
2022/08/15 09:22:36;;;;;;;8.77;7.07;;;793.70;1561.60;;;;;;4976316;28;20050;-83
2022/08/15 09:25:01;;;;;;;11.52;7.30;;;793.70;1561.60;;;;;;4993442;28;20484;-80
2022/08/15 09:27:53;;;;;;;7.85;6.57;;;793.70;1561.60;;;;;;4975915;28;20037;-80
2022/08/15 09:30:19;;;;;;;10.32;6.88;;;793.90;1536.00;;;;;;4993469;28;20026;-80
2022/08/15 09:33:09;;;;;;;10.82;7.18;;;794.00;1536.00;;;;;;4976185;28;20035;-82
2022/08/15 09:36:17;;;;;;;8.23;6.40;;;794.10;1536.00;;;;;;4993286;28;20058;-81
2022/08/15 09:38:51;;;;;;;9.15;7.25;;;794.20;1484.80;;;;;;4984907;28;20022;-82
2022/08/15 09:41:40;;;;;;;8.23;7.30;;;794.40;1484.80;;;;;;4975733;28;20069;-82
2022/08/15 09:44:09;;;;;;;12.32;6.93;;;794.50;1484.80;;;;;;4989114;28;20026;-79
2022/08/15 09:46:53;;;;;;;7.82;7.03;;;819.30;1484.80;;;;;;4993327;28;20022;-79
2022/08/15 09:49:53;;;;;;;9.20;7.05;;;819.30;1459.20;;;;;;4993168;28;20018;-82
2022/08/15 09:52:41;;;;;;;9.80;7.00;;;819.30;1433.60;;;;;;4975677;28;20026;-82
2022/08/15 09:55:16;;;;;;;11.13;7.13;;;819.50;1433.60;;;;;;4975825;28;20081;-80
2022/08/15 09:57:48;;;;;;;9.40;7.15;;;820.00;1408.00;;;;;;4993074;28;20104;-82
2022/08/15 10:00:17;;;;;;;13.02;7.53;;;820.10;1382.40;;;;;;4993332;28;20027;-82
2022/08/15 10:02:46;;;;;;;9.82;6.85;;;844.80;1382.40;;;;;;4981215;28;20076;-82
2022/08/15 10:05:23;;;;;;;8.88;7.45;;;844.90;1382.40;;;;;;4981229;28;20030;-81
2022/08/15 10:07:56;;;;;;;14.55;6.85;;;845.00;1382.40;;;;;;4997150;28;20472;-80
2022/08/15 10:10:46;;;;;;;9.27;6.50;;;;;;;;;;4996507;28;20026;-82
2022/08/15 10:13:26;;;;;;;6.78;5.80;;;845.40;1331.20;;;;;;4988577;28;20500;-80
2022/08/15 10:15:53;;;;;;;10.10;7.53;;;845.40;1305.60;;;;;;4996329;28;20066;-81
2022/08/15 10:18:22;;;;;;;8.15;6.72;;;845.60;1280.00;;;;;;4978881;28;20038;-80
2022/08/15 10:21:17;;;;;;;8.68;6.72;;;845.20;1331.20;;;;;;4996430;28;20025;-82
2022/08/15 10:23:46;;;;;;;9.02;6.47;;;845.20;1305.60;;;;;;4978853;28;20483;-82
2022/08/15 10:26:18;;;;;;;9.95;7.03;;;845.60;1305.60;;;;;;4988959;28;20042;-79
2022/08/15 10:29:09;;;;;;;12.88;6.97;;;870.50;1280.00;;;;;;4998642;28;20053;-82
2022/08/15 10:31:57;;;;;;;8.13;7.00;;;870.70;1254.40;;;;;;4920159;29;20051;-78
2022/08/15 10:34:28;;;;;;;9.18;7.32;;;870.80;1254.40;;;;;;4939662;29;20536;-80
2022/08/15 10:37:29;;;;;;;10.52;6.43;;;870.90;1228.80;;;;;;4945412;29;20038;-82
2022/08/15 10:40:20;;;;;;;10.50;7.20;;;871.00;1254.40;;;;;;4936042;29;20489;-81
2022/08/15 10:43:11;;;;;;;10.02;6.90;;;871.10;1203.20;;;;;;4919724;29;20129;-82
2022/08/15 10:45:59;;;;;;;10.45;6.63;;;871.30;1203.20;;;;;;4920059;29;20039;-81
2022/08/15 10:48:34;;;;;;;8.05;6.28;;;871.30;1203.20;;;;;;4935781;28;20031;-81
2022/08/15 10:51:02;;;;;;;9.77;6.72;;;871.30;1177.60;;;;;;4919846;29;20482;-79
2022/08/15 10:53:55;;;;;;;9.13;6.10;;;896.10;1177.60;;;;;;4935604;29;20506;-81
2022/08/15 10:56:26;;;;;;;6.85;6.15;;;871.30;1177.60;;;;;;4935775;29;20040;-82
2022/08/15 10:59:02;;;;;;;7.95;6.65;;;896.20;1177.60;;;;;;4919572;29;20529;-80
2022/08/15 11:01:33;;;;;;;9.20;6.13;;;896.20;1152.00;;;;;;4919580;29;20036;-82
2022/08/15 11:04:05;;;;;;;10.75;7.05;;;896.20;1152.00;;;;;;4935670;29;20031;-80
2022/08/15 11:06:34;;;;;;;8.13;6.50;;;896.10;1177.60;;;;;;4935347;29;20216;-80
2022/08/15 11:09:08;;;;;;;7.55;6.57;;;896.50;1126.40;;;;;;4958745;28;20392;-79
2022/08/15 11:11:42;;;;;;;7.60;6.53;;;896.10;1152.00;;;;;;4995194;28;20057;-81
2022/08/15 11:14:21;;;;;;;7.82;6.38;;;896.30;1126.40;;;;;;4994568;28;20023;-80
2022/08/15 11:16:51;;;;;;;12.15;6.93;;;896.40;1126.40;;;;;;4995127;28;20034;-79
2022/08/15 11:19:29;;;;;;;8.02;6.93;;;896.90;1126.40;;;;;;4978095;28;20068;-80
2022/08/15 11:22:00;;;;;;;8.02;6.20;;;896.80;1126.40;;;;;;4977745;28;20181;-83
2022/08/15 11:24:34;;;;;;;11.32;6.45;;;896.70;1100.80;;;;;;4995794;28;20079;-82
2022/08/15 11:27:21;;;;;;;9.52;6.90;;;896.70;1100.80;;;;;;4993797;28;20031;-81
2022/08/15 11:29:49;;;;;;;10.82;6.90;;;896.70;1100.80;;;;;;4995033;28;20034;-83
2022/08/15 11:32:28;;;;;;;7.25;6.13;;;;;;;;;;4994844;28;20025;-77
2022/08/15 11:34:54;;;;;;;6.68;5.97;;;;;;;;;;4995035;28;20026;-81
2022/08/15 11:37:23;;;;;;;7.00;6.30;;;;;;;;;;4995021;28;20102;-82
2022/08/15 11:39:58;;;;;;;7.20;6.45;;;896.90;1126.40;;;;;;4994922;28;20041;-80
2022/08/15 11:42:26;;;;;;;7.43;6.03;;;896.90;1126.40;;;;;;4994737;28;20054;-74
2022/08/15 11:45:04;;;;;;;13.95;6.72;;;896.90;1126.40;;;;;;4994462;28;20384;-79
2022/08/15 11:47:32;;;;;;;8.13;6.55;;;921.60;1152.00;;;;;;4994706;28;20053;-76
2022/08/15 11:50:04;;;;;;;8.15;6.78;;;921.70;1152.00;;;;;;4994470;28;20079;-77
2022/08/15 11:52:35;;;;;;;9.13;6.80;;;921.70;1152.00;;;;;;4994450;28;20109;-81
2022/08/15 11:55:25;;;;;;;10.75;6.47;;;921.80;1126.40;;;;;;4994282;28;20036;-76
2022/08/15 11:57:54;;;;;;;9.30;7.32;;;921.80;1152.00;;;;;;4994205;28;20035;-81
2022/08/15 12:00:28;;;;;;;11.90;6.85;;;896.90;1203.20;;;;;;4994504;28;20021;-82
2022/08/15 12:02:55;;;;;;;12.93;7.28;;;896.40;1228.80;;;;;;4994297;28;20022;-76
2022/08/15 12:05:33;;;;;;;11.13;7.07;;;871.10;1254.40;;;;;;4994316;28;20058;-78
2022/08/15 12:08:02;;;;;;;9.00;6.72;;;870.80;1254.40;;;;;;4994784;28;20030;-81
2022/08/15 12:10:38;;;;;;;10.70;6.82;;;870.90;1254.40;;;;;;4977123;28;20408;-79
2022/08/15 12:13:05;;;;;;;7.93;7.13;;;871.10;1228.80;;;;;;4976892;28;20037;-82
2022/08/15 12:15:31;;;;;;;9.63;6.65;;;870.90;1254.40;;;;;;4977452;28;20018;-85
2022/08/15 12:18:24;;;;;;;14.77;6.93;;;871.00;1254.40;;;;;;4994549;28;20429;-81
2022/08/15 12:20:56;;;;;;;6.47;5.80;;;871.10;1254.40;;;;;;4934761;29;20119;-82
2022/08/15 12:23:36;;;;;;;8.52;5.93;;;871.30;1228.80;;;;;;4947872;29;20046;-80
2022/08/15 12:26:11;;;;;;;10.60;6.22;;;871.30;1228.80;;;;;;4917902;29;20148;-86
2022/08/15 12:28:38;;;;;;;9.60;6.25;;;896.00;1228.80;;;;;;4926296;29;20055;-81
2022/08/15 12:31:21;;;;;;;9.18;6.18;;;896.10;1203.20;;;;;;4914915;29;20114;-80
2022/08/15 12:33:49;;;;;;;7.75;6.25;;;871.30;1203.20;;;;;;4934117;29;20075;-92
2022/08/15 12:36:15;;;;;;;13.38;5.88;;;896.00;1203.20;;;;;;4925871;29;20110;-85
2022/08/15 12:38:41;;;;;;;7.28;6.05;;;870.90;1228.80;;;;;;4934201;29;20533;-78
2022/08/15 12:41:08;;;;;;;6.75;5.93;;;870.50;1228.80;;;;;;4933997;29;20063;-86
2022/08/15 12:43:35;;;;;;;8.35;6.50;;;870.50;1254.40;;;;;;4934043;29;20028;-80
2022/08/15 12:46:02;;;;;;;16.58;5.90;;;845.70;1280.00;;;;;;4934425;29;20538;-79
2022/08/15 12:48:33;;;;;;;10.32;6.05;;;845.50;1280.00;;;;;;4930629;28;20044;-77
2022/08/15 12:50:59;;;;;;;7.75;6.95;;;845.50;1305.60;;;;;;4932478;29;20474;-76
2022/08/15 12:53:25;;;;;;;9.70;7.10;;;870.40;1280.00;;;;;;4936544;29;20115;-75
2022/08/15 12:55:51;;;;;;;9.25;6.72;;;870.90;1203.20;;;;;;4925408;29;20167;-77